Taintor, Iowa
Current Conditions -  °F | °C
As of 8:35 AM on Friday 24 Oct 2014 (Local Time) from KPEA Reporting Station
Moderate Fog Moderate Fog  
Wind Chill: 58°   Ceiling: 100
Heat Index: 58°   Visibility: 0.25mi
Dew Point: 58°   Wind: 10mph
Humidity: 99%   Direction: 180°S
Pressure: 30.01"   Gusts: NA
Location:  41.465°N, 92.7016°W
Report Text: KPEA 241335Z AUTO 18009KT 1/4SM FG OVC001 15/14 A3001 RMK AO2 T01450144
Loading
Personal Weather Stations






























Interactive Weather Map
Tropical Storm Tracking
New forecast layout! Learn more

10-Day Weather Forecast

Advertisements
Track Severe Weather on mobile